Time;durP1;ratioP1;P1;durP2;ratioP2;P2;SDS_P1;SDS_P2;PMS_P1;PMS_P2;Temp;Humidity;BMP_temperature;BMP_pressure;BME280_temperature;BME280_humidity;BME280_pressure;Samples;Min_cycle;Max_cycle;Signal;HPM_P1;HPM_P2
2023/11/03 00:02:22;;;;;;;8.70;3.20;;;;;;;15.66;58.79;100060.97;109903;1288;21964;-70
2023/11/03 00:04:48;;;;;;;6.50;3.60;;;;;;;15.67;58.82;100061.45;109905;1288;22760;-60
2023/11/03 00:07:14;;;;;;;4.50;3.00;;;;;;;15.69;58.80;100060.52;109896;1287;21918;-70
2023/11/03 00:09:40;;;;;;;11.50;3.20;;;;;;;15.71;58.78;100065.20;109902;1281;22011;-60
2023/11/03 00:12:06;;;;;;;6.50;3.00;;;;;;;15.74;58.84;100071.08;109892;1288;21959;-70
2023/11/03 00:14:33;;;;;;;6.80;3.40;;;;;;;15.78;58.88;100070.05;109900;1277;21851;-70
2023/11/03 00:16:59;;;;;;;5.40;3.20;;;;;;;15.83;59.06;100072.70;109900;1281;21972;-70
2023/11/03 00:19:25;;;;;;;4.50;3.00;;;;;;;15.86;59.06;100072.77;109904;1283;21998;-60
2023/11/03 00:21:52;;;;;;;6.60;3.00;;;;;;;15.91;59.06;100071.36;109902;1286;22432;-60
2023/11/03 00:24:18;;;;;;;9.20;3.00;;;;;;;15.94;59.07;100062.91;109893;1281;21954;-60
2023/11/03 00:26:44;;;;;;;7.10;3.30;;;;;;;15.96;59.08;100056.64;109892;1287;21942;-69
2023/11/03 00:29:10;;;;;;;3.70;2.60;;;;;;;15.98;59.14;100048.94;109900;1283;21953;-69
2023/11/03 00:31:45;;;;;;;6.60;3.10;;;;;;;16.02;59.13;100044.02;109923;1287;21946;-61
2023/11/03 00:34:10;;;;;;;7.20;2.80;;;;;;;16.05;59.15;100036.64;109889;1286;21997;-60
2023/11/03 00:36:38;;;;;;;7.70;3.30;;;;;;;16.08;59.20;100026.95;109868;1283;22162;-70
2023/11/03 00:39:04;;;;;;;7.20;2.80;;;;;;;16.11;59.22;100026.66;109886;1283;21887;-60
2023/11/03 00:41:30;;;;;;;7.60;3.70;;;;;;;16.14;59.28;100029.39;109899;1277;21845;-69
2023/11/03 00:43:55;;;;;;;10.60;3.30;;;;;;;16.15;59.28;100029.67;109881;1283;21963;-61
2023/11/03 00:46:21;;;;;;;7.70;2.70;;;;;;;16.18;59.32;100029.05;109887;1276;21950;-60
2023/11/03 00:48:46;;;;;;;7.60;2.80;;;;;;;16.21;59.31;100031.05;109901;1287;21944;-69
2023/11/03 00:51:12;;;;;;;6.20;2.60;;;;;;;16.23;59.34;100033.79;109891;1276;21879;-60
2023/11/03 00:53:37;;;;;;;9.80;3.00;;;;;;;16.26;59.33;100033.29;109891;1287;21868;-70
2023/11/03 00:56:06;;;;;;;6.50;2.70;;;;;;;16.29;59.29;100028.20;109907;1283;21941;-60
2023/11/03 00:58:35;;;;;;;4.70;2.60;;;;;;;16.33;59.36;100024.50;109879;1287;22013;-60
2023/11/03 01:01:07;;;;;;;5.00;2.60;;;;;;;16.36;59.34;100026.68;109897;1287;21910;-70
2023/11/03 01:03:32;;;;;;;7.90;3.10;;;;;;;16.39;59.27;100025.52;109906;1276;21932;-60
2023/11/03 01:05:58;;;;;;;4.40;2.50;;;;;;;16.40;59.29;100018.95;109897;1281;21996;-61
2023/11/03 01:08:24;;;;;;;4.60;2.40;;;;;;;16.40;59.17;100019.11;109937;1287;21945;-70
2023/11/03 01:10:50;;;;;;;11.00;2.80;;;;;;;16.42;59.29;100020.81;109941;1278;21973;-60
2023/11/03 01:13:16;;;;;;;10.20;2.70;;;;;;;16.44;59.26;100024.26;109934;1287;21892;-66
2023/11/03 01:15:43;;;;;;;4.90;2.10;;;;;;;16.46;59.32;100027.00;109940;1287;21952;-60
2023/11/03 01:18:09;;;;;;;5.10;2.60;;;;;;;16.48;59.21;100025.85;109941;1280;21945;-60
2023/11/03 01:20:35;;;;;;;3.90;2.50;;;;;;;16.49;59.15;100028.81;109939;1286;21925;-62
2023/11/03 01:23:01;;;;;;;4.60;2.50;;;;;;;16.50;59.18;100034.45;109945;1281;21955;-70
2023/11/03 01:25:31;;;;;;;6.30;2.50;;;;;;;16.49;59.22;100036.41;109940;1286;21988;-69
2023/11/03 01:27:59;;;;;;;3.70;2.10;;;;;;;16.50;59.12;100036.73;109931;1287;21871;-71
2023/11/03 01:30:26;;;;;;;4.70;2.30;;;;;;;16.51;59.23;100036.35;109932;1281;21960;-60
2023/11/03 01:32:55;;;;;;;5.30;2.20;;;;;;;16.53;59.15;100034.52;109937;1286;21910;-60
2023/11/03 01:35:21;;;;;;;6.00;2.40;;;;;;;16.53;59.17;100024.40;109955;1276;22564;-71
2023/11/03 01:37:47;;;;;;;5.00;2.60;;;;;;;16.54;59.27;100026.86;109949;1281;21947;-70
2023/11/03 01:40:14;;;;;;;4.60;3.00;;;;;;;16.54;59.14;100028.98;109951;1283;21992;-60
2023/11/03 01:42:40;;;;;;;8.70;3.10;;;;;;;16.53;59.13;100027.77;109930;1278;21941;-61
2023/11/03 01:45:06;;;;;;;4.10;2.60;;;;;;;16.53;59.14;100023.15;108421;1273;1002849;-60
2023/11/03 01:47:34;;;;;;;4.80;2.90;;;;;;;16.53;59.08;100019.30;109931;1277;21891;-60
2023/11/03 01:50:00;;;;;;;5.50;2.70;;;;;;;16.52;59.13;100021.09;109947;1274;21932;-60
2023/11/03 01:52:25;;;;;;;6.20;2.80;;;;;;;16.52;59.15;100024.45;109864;1278;22002;-70
2023/11/03 01:54:51;;;;;;;5.00;2.90;;;;;;;16.53;59.10;100027.44;109941;1280;21923;-60
2023/11/03 01:57:18;;;;;;;6.20;2.80;;;;;;;16.52;59.03;100025.86;109848;1287;21958;-71
2023/11/03 01:59:46;;;;;;;7.00;3.10;;;;;;;16.52;58.97;100027.48;109934;1283;21874;-60
2023/11/03 02:02:12;;;;;;;7.30;3.10;;;;;;;16.50;58.90;100022.91;109939;1280;22487;-71
2023/11/03 02:04:38;;;;;;;4.60;2.70;;;;;;;16.51;58.96;100029.63;109842;1287;21975;-72
2023/11/03 02:07:04;;;;;;;6.10;2.80;;;;;;;16.51;58.93;100028.55;109939;1280;21861;-72
2023/11/03 02:09:29;;;;;;;6.70;2.90;;;;;;;16.52;58.89;100026.59;109932;1287;21925;-72
2023/11/03 02:11:55;;;;;;;7.50;3.30;;;;;;;16.52;58.86;100023.55;109961;1279;21921;-60
2023/11/03 02:14:22;;;;;;;8.00;3.00;;;;;;;16.51;58.90;100021.48;109935;1283;21931;-60
2023/11/03 02:16:47;;;;;;;5.10;3.10;;;;;;;16.50;58.80;100019.04;109958;1280;21882;-72
2023/11/03 02:19:13;;;;;;;5.00;3.00;;;;;;;16.47;58.74;100014.00;109964;1277;21870;-60
2023/11/03 02:21:39;;;;;;;7.70;3.40;;;;;;;16.45;58.72;100008.45;109947;1287;21944;-71
2023/11/03 02:24:05;;;;;;;5.90;3.10;;;;;;;16.42;58.62;100006.98;109930;1287;21929;-72
2023/11/03 02:26:31;;;;;;;4.80;3.40;;;;;;;16.38;58.54;100010.48;109965;1279;21932;-72
2023/11/03 02:28:56;;;;;;;7.90;3.90;;;;;;;16.33;58.43;100013.70;109934;1280;22012;-72
2023/11/03 02:31:22;;;;;;;7.10;3.40;;;;;;;16.28;58.28;100010.40;109957;1279;21929;-60
2023/11/03 02:33:48;;;;;;;7.10;3.40;;;;;;;16.22;58.08;100008.19;109941;1286;21952;-72
2023/11/03 02:36:15;;;;;;;7.00;3.60;;;;;;;16.15;57.95;100010.92;109852;1287;21948;-71
2023/11/03 02:38:40;;;;;;;6.40;3.30;;;;;;;16.09;57.91;100013.84;109950;1279;21974;-60
2023/11/03 02:41:07;;;;;;;6.10;3.40;;;;;;;16.04;57.92;100014.55;109942;1280;21961;-60
2023/11/03 02:43:33;;;;;;;4.80;3.30;;;;;;;15.99;57.87;100009.65;109945;1273;22080;-71
2023/11/03 02:45:58;;;;;;;6.20;3.30;;;;;;;15.93;57.84;100002.42;109941;1283;21914;-60
2023/11/03 02:48:24;;;;;;;6.80;3.10;;;;;;;15.87;57.72;99997.70;109935;1287;21954;-72
2023/11/03 02:50:50;;;;;;;8.30;3.70;;;;;;;15.82;57.75;100003.58;109848;1280;21947;-72
2023/11/03 02:53:16;;;;;;;5.90;4.00;;;;;;;15.76;57.72;100005.93;109938;1287;21870;-60
2023/11/03 02:55:41;;;;;;;5.90;3.70;;;;;;;15.70;57.64;100009.14;109923;1279;21981;-60
2023/11/03 02:58:07;;;;;;;8.60;3.70;;;;;;;15.65;57.67;100000.52;109950;1276;22064;-72
2023/11/03 03:00:36;;;;;;;7.40;4.20;;;;;;;15.61;57.65;99999.60;109970;1282;21955;-72
2023/11/03 03:03:05;;;;;;;8.10;4.10;;;;;;;15.57;57.62;99998.16;109909;1276;21966;-72
2023/11/03 03:05:32;;;;;;;8.10;3.80;;;;;;;15.53;57.61;100001.87;109941;1279;21959;-72
2023/11/03 03:07:57;;;;;;;8.90;3.60;;;;;;;15.48;57.61;99998.34;109939;1287;22074;-72
2023/11/03 03:10:23;;;;;;;7.90;4.00;;;;;;;15.43;57.60;99993.41;109937;1287;21968;-72
2023/11/03 03:12:49;;;;;;;8.30;3.50;;;;;;;15.39;57.54;99989.86;109937;1287;22151;-61
2023/11/03 03:15:15;;;;;;;13.10;3.90;;;;;;;15.36;57.53;99990.52;109922;1280;21967;-60
2023/11/03 03:17:41;;;;;;;12.50;4.00;;;;;;;15.32;57.51;99990.99;109918;1286;21951;-70
2023/11/03 03:20:07;;;;;;;12.70;5.00;;;;;;;15.29;57.50;99989.16;109948;1279;21865;-71
2023/11/03 03:22:33;;;;;;;10.60;4.50;;;;;;;15.25;57.60;99990.37;109942;1286;21936;-60
2023/11/03 03:24:59;;;;;;;13.40;4.10;;;;;;;15.21;57.51;99988.76;109936;1287;21952;-60
2023/11/03 03:27:24;;;;;;;9.50;3.70;;;;;;;15.18;57.49;99986.21;109945;1279;21970;-60
2023/11/03 03:29:50;;;;;;;12.60;4.70;;;;;;;15.15;57.49;99981.55;109948;1286;21979;-72
2023/11/03 03:32:15;;;;;;;9.20;4.00;;;;;;;15.12;57.39;99977.40;109945;1274;22343;-72
2023/11/03 03:34:41;;;;;;;12.00;4.60;;;;;;;15.09;57.42;99970.64;109926;1280;21922;-72
2023/11/03 03:37:06;;;;;;;13.70;4.40;;;;;;;15.07;57.44;99968.08;109949;1287;21945;-72
2023/11/03 03:39:32;;;;;;;7.90;4.80;;;;;;;15.03;57.47;99960.09;109941;1286;21975;-71
2023/11/03 03:41:57;;;;;;;7.70;3.90;;;;;;;15.00;57.51;99958.45;109949;1279;21954;-60
2023/11/03 03:44:23;;;;;;;10.00;4.70;;;;;;;14.97;57.43;99952.88;109941;1279;22013;-71
2023/11/03 03:46:48;;;;;;;8.70;4.00;;;;;;;14.95;57.55;99954.04;109946;1279;21952;-71
2023/11/03 03:49:14;;;;;;;11.40;4.10;;;;;;;14.93;57.52;99960.63;109921;1283;21994;-60
2023/11/03 03:51:39;;;;;;;7.00;4.30;;;;;;;14.93;57.56;99966.81;109949;1283;21961;-62
2023/11/03 03:54:05;;;;;;;11.10;4.00;;;;;;;14.93;57.68;99971.08;109939;1280;21949;-72
2023/11/03 03:56:31;;;;;;;12.40;4.80;;;;;;;14.91;57.65;99968.48;109943;1273;21842;-72
2023/11/03 03:58:57;;;;;;;12.60;4.70;;;;;;;14.90;57.63;99971.36;109924;1283;21983;-60
2023/11/03 04:01:23;;;;;;;10.60;4.70;;;;;;;14.87;57.68;99968.10;109957;1280;21946;-69
2023/11/03 04:03:48;;;;;;;15.30;4.80;;;;;;;14.84;57.64;99962.17;109924;1274;22000;-59
2023/11/03 04:06:14;;;;;;;9.30;4.50;;;;;;;14.83;57.60;99957.11;109920;1283;21905;-59
2023/11/03 04:08:39;;;;;;;12.00;4.50;;;;;;;14.82;57.68;99956.27;109943;1283;21942;-71
2023/11/03 04:11:05;;;;;;;15.90;5.30;;;;;;;14.81;57.66;99952.57;109919;1286;21942;-60
2023/11/03 04:13:32;;;;;;;9.90;4.20;;;;;;;14.80;57.64;99949.79;109962;1286;21943;-60
2023/11/03 04:15:57;;;;;;;12.20;5.00;;;;;;;14.80;57.69;99945.77;109950;1280;22014;-71
2023/11/03 04:18:23;;;;;;;13.60;4.50;;;;;;;14.78;57.64;99942.64;109956;1280;21987;-71
2023/11/03 04:20:49;;;;;;;13.20;4.70;;;;;;;14.77;57.67;99941.10;109936;1286;22007;-71
2023/11/03 04:23:14;;;;;;;14.20;4.70;;;;;;;14.76;57.68;99945.04;109935;1279;21911;-71
2023/11/03 04:25:40;;;;;;;18.60;5.10;;;;;;;14.75;57.64;99946.64;109954;1275;21869;-72
2023/11/03 04:28:06;;;;;;;11.50;4.80;;;;;;;14.75;57.74;99949.30;109944;1280;21962;-60
2023/11/03 04:30:35;;;;;;;16.70;4.50;;;;;;;14.76;57.82;99950.15;109955;1283;21932;-71
2023/11/03 04:33:02;;;;;;;14.30;4.50;;;;;;;14.76;57.78;99956.31;109941;1279;22057;-61
2023/11/03 04:35:28;;;;;;;12.20;4.80;;;;;;;14.76;57.82;99958.60;109901;1286;21848;-60
2023/11/03 04:37:54;;;;;;;12.10;4.60;;;;;;;14.77;57.94;99964.07;109942;1279;22006;-61
2023/11/03 04:40:21;;;;;;;14.00;4.50;;;;;;;14.76;57.91;99968.86;109959;1286;21928;-71
2023/11/03 04:42:50;;;;;;;9.70;4.50;;;;;;;14.75;57.91;99977.01;109924;1286;21950;-61
2023/11/03 04:45:16;;;;;;;7.40;4.20;;;;;;;14.75;57.87;99983.37;109937;1279;21950;-71
2023/11/03 04:47:41;;;;;;;8.50;3.70;;;;;;;14.75;57.87;99989.20;109946;1279;21906;-71
2023/11/03 04:50:10;;;;;;;7.00;4.10;;;;;;;14.67;58.06;99989.11;109946;1279;21937;-60
2023/11/03 04:52:36;;;;;;;6.30;4.20;;;;;;;14.58;58.28;99994.19;109961;1276;21892;-71
2023/11/03 04:55:03;;;;;;;8.70;4.50;;;;;;;14.62;57.87;99994.59;109950;1279;21933;-60
2023/11/03 04:57:28;;;;;;;9.00;5.10;;;;;;;14.58;57.68;99994.16;109952;1279;21924;-71
2023/11/03 04:59:54;;;;;;;8.60;5.20;;;;;;;14.52;57.58;99991.20;109937;1286;21959;-61
2023/11/03 05:02:19;;;;;;;10.50;3.90;;;;;;;14.42;57.44;99987.12;109941;1275;21957;-60
2023/11/03 05:04:45;;;;;;;6.00;3.60;;;;;;;14.33;57.46;99985.66;109947;1276;21931;-71
2023/11/03 05:07:11;;;;;;;12.40;4.50;;;;;;;14.32;57.75;99982.00;109964;1279;21905;-72
2023/11/03 05:09:37;;;;;;;8.40;4.40;;;;;;;14.35;57.96;99980.14;109938;1273;21926;-60
2023/11/03 05:12:03;;;;;;;11.70;4.00;;;;;;;14.40;58.12;99975.73;109929;1283;21937;-65
2023/11/03 05:14:30;;;;;;;8.90;4.60;;;;;;;14.43;58.11;99976.34;109927;1280;21954;-69
2023/11/03 05:16:56;;;;;;;8.60;4.70;;;;;;;14.45;58.12;99975.38;109949;1278;21906;-60
2023/11/03 05:19:22;;;;;;;11.00;4.10;;;;;;;14.46;58.13;99975.16;109936;1279;21951;-60
2023/11/03 05:21:48;;;;;;;9.60;4.30;;;;;;;14.47;58.19;99977.25;109940;1278;21903;-69
2023/11/03 05:24:14;;;;;;;12.90;4.50;;;;;;;14.50;58.24;99981.05;109941;1275;21928;-60
2023/11/03 05:26:41;;;;;;;10.40;4.40;;;;;;;14.51;58.29;99980.11;109941;1283;21989;-62
2023/11/03 05:29:08;;;;;;;10.70;4.60;;;;;;;14.54;58.46;99981.59;109934;1286;21886;-69
2023/11/03 05:31:33;;;;;;;13.80;5.30;;;;;;;14.59;58.56;99986.88;109936;1273;21929;-61
2023/11/03 05:34:02;;;;;;;9.20;4.80;;;;;;;14.63;58.62;99986.23;109948;1282;21957;-69
2023/11/03 05:36:29;;;;;;;12.20;4.80;;;;;;;14.65;58.57;99986.50;109923;1283;22001;-69
2023/11/03 05:38:54;;;;;;;8.60;4.60;;;;;;;14.66;58.46;99990.70;109953;1286;21961;-60
2023/11/03 05:41:20;;;;;;;8.40;5.00;;;;;;;14.66;58.62;99988.05;109944;1286;21910;-69
2023/11/03 05:43:46;;;;;;;12.20;5.80;;;;;;;14.68;58.78;99987.10;107670;1273;1002455;-67
2023/11/03 05:46:11;;;;;;;8.50;4.90;;;;;;;14.73;59.00;99987.31;109933;1279;21930;-63
2023/11/03 05:48:37;;;;;;;6.70;4.30;;;;;;;14.80;59.16;99985.48;109947;1286;21957;-60
2023/11/03 05:51:04;;;;;;;6.70;4.30;;;;;;;14.89;59.37;99977.39;109927;1287;21993;-60
2023/11/03 05:53:30;;;;;;;10.30;4.70;;;;;;;14.97;59.64;99979.04;109943;1283;22063;-69
2023/11/03 05:55:56;;;;;;;9.50;4.60;;;;;;;15.06;59.64;99980.28;109924;1280;22465;-60
2023/11/03 05:58:21;;;;;;;9.50;4.40;;;;;;;15.15;59.72;99979.44;109938;1275;21951;-70
2023/11/03 06:00:47;;;;;;;9.50;5.10;;;;;;;15.23;59.78;99982.12;109944;1283;21918;-60
2023/11/03 06:03:13;;;;;;;7.40;4.40;;;;;;;15.31;59.84;99985.54;109959;1287;21951;-69
2023/11/03 06:05:39;;;;;;;8.30;5.20;;;;;;;15.39;59.90;99980.98;109947;1280;21910;-69
2023/11/03 06:08:13;;;;;;;8.60;5.60;;;;;;;15.48;59.87;99977.82;109939;1286;21943;-60
2023/11/03 06:10:39;;;;;;;7.90;5.10;;;;;;;15.56;59.97;99980.89;109958;1280;22002;-60
2023/11/03 06:13:05;;;;;;;8.70;5.20;;;;;;;15.63;60.01;99984.69;109945;1273;21923;-60
2023/11/03 06:15:30;;;;;;;7.70;5.00;;;;;;;15.70;59.97;99981.22;109945;1277;22004;-61
2023/11/03 06:17:56;;;;;;;8.60;4.90;;;;;;;15.77;60.08;99974.74;109981;1283;21931;-60
2023/11/03 06:20:21;;;;;;;6.20;4.50;;;;;;;15.86;60.15;99968.58;109952;1275;22015;-68
2023/11/03 06:22:48;;;;;;;8.30;5.60;;;;;;;15.95;60.41;99967.70;109854;1286;21913;-60
2023/11/03 06:25:14;;;;;;;7.40;5.40;;;;;;;16.04;60.45;99968.54;109939;1279;22024;-69
2023/11/03 06:27:39;;;;;;;8.30;5.10;;;;;;;16.14;60.50;99962.28;109949;1276;21928;-60
2023/11/03 06:30:06;;;;;;;8.60;5.70;;;;;;;16.14;60.79;99955.75;109951;1283;21973;-69
2023/11/03 06:32:32;;;;;;;8.50;5.80;;;;;;;16.17;61.25;99949.77;109970;1280;21936;-68
2023/11/03 06:34:57;;;;;;;7.80;5.20;;;;;;;16.26;61.52;99947.27;109955;1279;21941;-60
2023/11/03 06:37:23;;;;;;;27.80;9.80;;;;;;;16.39;61.80;99941.07;109948;1287;22013;-69
2023/11/03 06:39:53;;;;;;;15.40;7.00;;;;;;;16.53;62.14;99936.04;109948;1279;21845;-69
2023/11/03 06:42:19;;;;;;;33.40;13.10;;;;;;;16.68;62.39;99935.02;109952;1287;21981;-70
2023/11/03 06:44:45;;;;;;;32.30;10.40;;;;;;;16.82;62.35;99931.91;109949;1280;21855;-69
2023/11/03 06:47:10;;;;;;;22.70;9.20;;;;;;;16.94;62.44;99926.05;109950;1283;21919;-70
2023/11/03 06:49:37;;;;;;;32.50;11.50;;;;;;;17.05;62.34;99918.48;109937;1279;21936;-61
2023/11/03 06:52:02;;;;;;;22.00;10.30;;;;;;;17.14;62.45;99913.08;109953;1278;21953;-61
2023/11/03 06:54:28;;;;;;;21.80;9.80;;;;;;;17.24;62.43;99918.48;109954;1273;21942;-60
2023/11/03 06:56:54;;;;;;;11.40;7.30;;;;;;;17.33;62.32;99916.10;109951;1287;22032;-69
2023/11/03 06:59:19;;;;;;;10.80;6.50;;;;;;;17.42;62.28;99915.19;109948;1286;22408;-69
2023/11/03 07:01:45;;;;;;;8.40;5.40;;;;;;;17.50;62.09;99913.38;109972;1285;21953;-68
2023/11/03 07:04:10;;;;;;;10.30;7.00;;;;;;;17.57;62.11;99911.23;109954;1279;21951;-60
2023/11/03 07:06:36;;;;;;;13.30;8.70;;;;;;;17.64;62.08;99908.27;109963;1283;21942;-61
2023/11/03 07:09:02;;;;;;;14.00;8.80;;;;;;;17.70;61.93;99904.77;109942;1278;21919;-69
2023/11/03 07:11:30;;;;;;;12.00;8.40;;;;;;;17.77;62.01;99898.38;109962;1273;21992;-68
2023/11/03 07:13:56;;;;;;;11.40;6.70;;;;;;;17.87;62.38;99891.67;109950;1273;21968;-68
2023/11/03 07:16:22;;;;;;;10.10;6.60;;;;;;;17.99;62.40;99890.23;109946;1280;21885;-60
2023/11/03 07:18:47;;;;;;;9.90;6.00;;;;;;;18.14;62.76;99896.73;109966;1273;21965;-70
2023/11/03 07:21:13;;;;;;;10.80;5.40;;;;;;;18.31;62.93;99905.10;109943;1279;21867;-70
2023/11/03 07:23:39;;;;;;;6.60;4.90;;;;;;;18.50;62.83;99912.13;109944;1283;21964;-60
2023/11/03 07:26:05;;;;;;;7.80;5.30;;;;;;;18.65;62.51;99912.71;109949;1279;21928;-61
2023/11/03 07:28:31;;;;;;;12.80;6.80;;;;;;;18.80;62.76;99921.86;109948;1279;21933;-60
2023/11/03 07:30:57;;;;;;;12.80;6.50;;;;;;;18.99;63.04;99927.78;109184;1287;1002252;-61
2023/11/03 07:33:23;;;;;;;10.10;6.50;;;;;;;19.18;62.97;99929.11;109938;1287;21927;-69
2023/11/03 07:35:48;;;;;;;11.60;6.60;;;;;;;19.36;62.91;99935.43;109962;1280;22014;-60
2023/11/03 07:38:14;;;;;;;13.70;6.60;;;;;;;19.51;62.48;99933.34;109955;1286;21948;-70
2023/11/03 07:40:39;;;;;;;14.20;6.70;;;;;;;19.62;62.22;99932.52;109956;1285;22016;-69
2023/11/03 07:43:08;;;;;;;9.90;6.20;;;;;;;19.73;62.01;99940.26;109945;1279;21938;-60
2023/11/03 07:45:34;;;;;;;8.70;5.90;;;;;;;19.84;61.92;99942.52;109939;1283;22002;-61
2023/11/03 07:48:01;;;;;;;7.80;5.40;;;;;;;19.92;61.72;99941.89;109958;1287;21961;-60
2023/11/03 07:50:26;;;;;;;8.80;5.70;;;;;;;19.98;61.61;99939.42;109958;1279;21993;-70
2023/11/03 07:52:52;;;;;;;8.80;4.60;;;;;;;20.05;61.53;99941.50;109914;1282;21990;-61
2023/11/03 07:55:20;;;;;;;9.00;5.20;;;;;;;20.12;61.58;99938.05;109878;1287;21947;-61
2023/11/03 07:57:47;;;;;;;7.90;5.30;;;;;;;20.18;61.33;99932.89;109947;1279;21932;-61
2023/11/03 08:00:13;;;;;;;7.60;5.50;;;;;;;20.23;61.09;99931.88;109945;1286;22421;-71
2023/11/03 08:02:38;;;;;;;11.50;5.20;;;;;;;20.29;61.22;99928.14;109955;1273;22214;-70
2023/11/03 08:05:06;;;;;;;6.70;5.00;;;;;;;20.37;61.29;99923.55;109850;1282;21871;-70
2023/11/03 08:07:35;;;;;;;7.80;5.30;;;;;;;20.44;61.30;99918.54;109946;1279;21876;-71
2023/11/03 08:10:03;;;;;;;9.40;5.80;;;;;;;20.50;61.42;99916.38;109951;1273;21922;-61
2023/11/03 08:12:33;;;;;;;9.30;5.70;;;;;;;20.56;61.41;99909.38;109964;1286;21970;-73
2023/11/03 08:14:59;;;;;;;;;;;;;;;20.63;61.41;99904.17;109967;1283;21952;-73
2023/11/03 08:17:25;;;;;;;7.20;5.30;;;;;;;20.71;61.30;99906.17;109949;1276;21911;-62
2023/11/03 08:19:51;;;;;;;7.50;5.00;;;;;;;20.77;61.19;99904.37;109944;1286;22400;-70
2023/11/03 08:22:17;;;;;;;7.80;4.80;;;;;;;20.84;61.03;99906.84;109941;1280;22298;-61
2023/11/03 08:24:43;;;;;;;8.40;5.70;;;;;;;20.90;61.03;99910.55;109941;1275;21916;-75
2023/11/03 08:27:09;;;;;;;7.80;5.50;;;;;;;20.95;60.89;99905.81;109854;1283;21924;-75
2023/11/03 08:29:36;;;;;;;11.10;5.90;;;;;;;21.00;60.68;99902.27;109955;1286;21966;-61
2023/11/03 08:32:03;;;;;;;11.10;5.80;;;;;;;21.05;60.67;99897.48;109914;1286;21936;-72
2023/11/03 08:34:29;;;;;;;8.70;6.00;;;;;;;21.08;60.45;99886.23;109954;1287;22007;-71
2023/11/03 08:36:56;;;;;;;13.70;5.50;;;;;;;21.12;60.31;99881.88;109941;1286;21916;-72
2023/11/03 08:39:21;;;;;;;11.20;4.90;;;;;;;21.17;59.91;99878.20;109951;1287;21955;-61
2023/11/03 08:41:47;;;;;;;13.00;6.10;;;;;;;21.20;59.70;99880.10;109943;1286;22262;-62
2023/11/03 08:44:14;;;;;;;13.00;6.00;;;;;;;21.20;59.49;99878.89;109943;1279;22290;-61
2023/11/03 08:46:40;;;;;;;13.90;6.30;;;;;;;21.23;60.12;99875.44;109949;1286;22007;-72
2023/11/03 08:49:06;;;;;;;13.30;6.50;;;;;;;21.37;60.39;99876.19;109844;1286;21924;-72
2023/11/03 08:51:31;;;;;;;13.40;7.60;;;;;;;21.55;60.87;99875.02;109847;1285;21941;-61
2023/11/03 08:53:57;;;;;;;14.40;8.10;;;;;;;21.75;60.88;99867.40;109945;1286;21959;-70
2023/11/03 08:56:22;;;;;;;21.50;15.40;;;;;;;21.97;60.97;99864.55;109947;1283;21963;-71
2023/11/03 08:58:48;;;;;;;64.20;30.00;;;;;;;22.21;61.06;99867.01;109956;1286;21947;-73
2023/11/03 09:01:14;;;;;;;56.90;23.00;;;;;;;22.47;60.99;99861.88;109941;1286;22470;-60
2023/11/03 09:03:40;;;;;;;23.80;13.30;;;;;;;22.73;60.79;99871.30;109938;1286;21901;-61
2023/11/03 09:06:07;;;;;;;18.90;10.40;;;;;;;22.96;60.43;99874.28;109944;1286;21931;-72
2023/11/03 09:08:33;;;;;;;16.10;8.70;;;;;;;23.18;60.25;99869.20;109863;1282;21920;-62
2023/11/03 09:11:00;;;;;;;13.20;8.20;;;;;;;23.41;60.13;99859.98;109938;1279;21948;-73
2023/11/03 09:13:26;;;;;;;19.00;8.00;;;;;;;23.61;59.85;99854.20;109950;1285;21987;-61
2023/11/03 09:15:52;;;;;;;12.70;7.10;;;;;;;23.81;59.66;99854.16;109950;1286;21924;-66
2023/11/03 09:18:18;;;;;;;11.80;6.20;;;;;;;24.03;59.50;99857.01;109951;1279;21997;-71
2023/11/03 09:20:44;;;;;;;28.90;7.60;;;;;;;24.21;58.65;99858.81;109944;1287;21900;-62
2023/11/03 09:23:13;;;;;;;45.60;8.50;;;;;;;24.34;58.03;99864.05;109937;1287;21934;-72
2023/11/03 09:25:39;;;;;;;27.70;6.10;;;;;;;24.39;57.39;99862.14;109880;1287;21801;-72
2023/11/03 09:28:05;;;;;;;42.20;10.00;;;;;;;24.45;57.28;99861.65;109960;1287;21876;-71
2023/11/03 09:30:30;;;;;;;12.50;6.00;;;;;;;24.54;57.45;99861.60;109956;1276;21943;-61
2023/11/03 09:32:56;;;;;;;11.30;6.00;;;;;;;24.70;57.29;99862.02;109956;1287;21936;-61
2023/11/03 09:35:22;;;;;;;8.70;5.20;;;;;;;24.85;57.43;99855.65;109942;1286;21950;-73
2023/11/03 09:37:48;;;;;;;25.80;9.90;;;;;;;24.92;56.00;99845.17;109901;1279;22476;-62
2023/11/03 09:40:17;;;;;;;35.60;11.60;;;;;;;24.97;55.70;99834.23;109946;1287;21944;-61
2023/11/03 09:42:43;;;;;;;15.80;8.80;;;;;;;25.07;56.63;99817.58;109938;1287;22177;-70
2023/11/03 09:45:15;;;;;;;12.70;7.20;;;;;;;25.28;57.43;99800.45;109961;1286;21917;-61
2023/11/03 09:47:41;;;;;;;12.00;6.10;;;;;;;25.50;57.47;99782.61;109950;1286;21958;-69
2023/11/03 09:50:10;;;;;;;9.40;6.20;;;;;;;25.69;57.49;99775.13;109948;1287;21932;-62
2023/11/03 09:52:38;;;;;;;9.70;5.90;;;;;;;25.84;57.51;99773.88;109964;1287;21947;-61
2023/11/03 09:55:05;;;;;;;8.20;5.20;;;;;;;25.97;57.39;99769.71;109957;1286;21910;-62
2023/11/03 09:57:31;;;;;;;14.30;6.60;;;;;;;26.08;57.13;99768.35;109872;1287;21979;-70
2023/11/03 09:59:58;;;;;;;9.50;6.30;;;;;;;26.18;56.75;99752.44;109873;1287;21935;-69
2023/11/03 10:02:25;;;;;;;10.90;6.30;;;;;;;26.29;56.60;99738.15;109849;1282;22005;-71
2023/11/03 10:04:50;;;;;;;6.60;5.00;;;;;;;26.39;56.37;99722.89;109933;1283;22090;-71
2023/11/03 10:07:17;;;;;;;9.60;5.50;;;;;;;26.46;56.09;99705.54;109941;1287;22002;-69
2023/11/03 10:09:43;;;;;;;9.00;5.30;;;;;;;26.54;55.95;99702.30;109924;1287;21972;-70
2023/11/03 10:12:10;;;;;;;7.60;5.40;;;;;;;26.63;55.70;99707.27;109961;1286;22005;-62
2023/11/03 10:14:39;;;;;;;7.50;5.00;;;;;;;26.65;55.22;99703.31;109950;1286;21940;-62
2023/11/03 10:17:05;;;;;;;9.00;4.80;;;;;;;26.59;54.56;99686.24;109948;1287;22011;-69
2023/11/03 10:19:30;;;;;;;5.70;4.40;;;;;;;26.48;54.28;99671.04;109954;1286;21932;-60
2023/11/03 10:21:57;;;;;;;9.10;4.70;;;;;;;26.37;54.18;99671.45;109960;1287;21933;-71
2023/11/03 10:24:23;;;;;;;6.30;4.10;;;;;;;26.31;54.22;99685.16;109862;1286;21995;-61
2023/11/03 10:26:53;;;;;;;5.40;3.90;;;;;;;26.30;54.36;99700.92;109904;1283;21939;-60
2023/11/03 10:29:19;;;;;;;6.00;3.60;;;;;;;26.29;54.13;99706.17;109842;1287;21961;-76
2023/11/03 10:31:48;;;;;;;6.90;3.80;;;;;;;26.33;54.24;99706.75;109816;1287;22425;-72
2023/11/03 10:34:15;;;;;;;7.80;3.60;;;;;;;26.38;54.21;99708.59;109889;1283;22001;-73
2023/11/03 10:36:41;;;;;;;5.70;3.70;;;;;;;26.48;54.07;99707.88;109859;1287;22001;-71
2023/11/03 10:39:07;;;;;;;6.20;3.60;;;;;;;26.60;54.03;99714.02;109898;1287;22011;-61
2023/11/03 10:41:33;;;;;;;6.40;4.40;;;;;;;26.57;52.46;99723.23;109947;1287;21967;-75
2023/11/03 10:44:00;;;;;;;6.60;4.00;;;;;;;26.43;52.49;99722.15;109783;1287;21989;-75
2023/11/03 10:46:35;;;;;;;6.90;4.10;;;;;;;26.43;53.41;99716.10;109820;1287;22416;-61
2023/11/03 10:49:31;;;;;;;5.60;3.90;;;;;;;26.52;52.99;99712.40;109947;1285;21988;-74
2023/11/03 10:52:16;;;;;;;6.60;4.40;;;;;;;26.46;51.59;99710.55;109844;1286;22391;-61
2023/11/03 10:54:51;;;;;;;6.80;4.50;;;;;;;26.39;52.56;99709.02;109935;1286;22165;-74
2023/11/03 10:57:17;;;;;;;6.70;3.80;;;;;;;26.44;52.54;99705.23;109942;1286;21971;-76
2023/11/03 10:59:44;;;;;;;5.90;4.30;;;;;;;26.40;52.13;99703.34;109849;1286;21993;-61
2023/11/03 11:02:49;;;;;;;6.60;3.60;;;;;;;26.29;51.84;99701.27;109847;1287;21973;-74
2023/11/03 11:05:59;;;;;;;7.00;4.50;;;;;;;26.16;51.59;99697.58;109831;1286;21996;-74
2023/11/03 11:08:27;;;;;;;7.90;4.70;;;;;;;26.07;52.29;99697.63;109932;1286;22030;-61
2023/11/03 11:10:52;;;;;;;9.80;5.30;;;;;;;26.14;52.77;99700.83;109949;1283;21938;-75
2023/11/03 11:13:19;;;;;;;9.20;4.90;;;;;;;26.20;52.01;99703.16;109858;1287;21983;-60
2023/11/03 11:15:56;;;;;;;7.80;4.30;;;;;;;26.08;50.67;99703.31;109950;1280;21869;-61
2023/11/03 11:18:23;;;;;;;5.60;4.30;;;;;;;25.85;51.35;99697.08;109952;1287;21996;-73